createdAt,value
2017-09-08T00:01:32.861Z,4.30
2017-09-08T00:04:00.727Z,4.13
2017-09-08T00:06:28.561Z,3.20
2017-09-08T00:08:56.377Z,3.33
2017-09-08T00:11:24.946Z,3.93
2017-09-08T00:13:53.579Z,4.67
2017-09-08T00:16:21.455Z,3.20
2017-09-08T00:18:49.351Z,3.30
2017-09-08T00:21:17.170Z,3.10
2017-09-08T00:23:44.984Z,4.00
2017-09-08T00:26:12.802Z,3.67
2017-09-08T00:28:40.604Z,3.43
2017-09-08T00:31:08.448Z,4.00
2017-09-08T00:33:36.271Z,4.33
2017-09-08T00:36:04.087Z,3.70
2017-09-08T00:38:31.908Z,3.43
2017-09-08T00:40:59.763Z,4.50
2017-09-08T00:43:28.353Z,4.40
2017-09-08T00:45:56.961Z,4.83
2017-09-08T00:48:25.654Z,4.87
2017-09-08T00:50:54.792Z,4.40
2017-09-08T00:53:23.564Z,4.10
2017-09-08T00:55:51.557Z,4.97
2017-09-08T00:58:20.179Z,4.50
2017-09-08T01:00:48.084Z,4.90
2017-09-08T01:03:15.898Z,4.40
2017-09-08T01:05:43.825Z,4.50
2017-09-08T01:08:11.672Z,5.20
2017-09-08T01:10:39.621Z,3.97
2017-09-08T01:13:07.502Z,5.13
2017-09-08T01:15:35.365Z,4.23
2017-09-08T01:18:03.217Z,4.40
2017-09-08T01:20:31.143Z,4.37
2017-09-08T01:22:59.747Z,4.10
2017-09-08T01:25:27.600Z,4.73
2017-09-08T01:27:56.241Z,4.63
2017-09-08T01:30:24.152Z,4.97
2017-09-08T01:32:52.798Z,5.50
2017-09-08T01:35:20.718Z,4.70
2017-09-08T01:37:48.528Z,4.83
2017-09-08T01:40:16.434Z,4.87
2017-09-08T01:42:45.126Z,3.60
2017-09-08T01:45:12.951Z,4.57
2017-09-08T01:47:40.828Z,4.70
2017-09-08T01:50:08.684Z,4.50
2017-09-08T01:52:36.584Z,4.93
2017-09-08T01:55:05.197Z,4.73
2017-09-08T01:57:33.093Z,4.53
2017-09-08T02:00:00.941Z,4.97
2017-09-08T02:02:28.779Z,4.70
2017-09-08T02:04:56.648Z,4.90
2017-09-08T02:07:24.582Z,4.10
2017-09-08T02:09:53.224Z,4.70
2017-09-08T02:12:21.120Z,5.97
2017-09-08T02:14:48.943Z,4.10
2017-09-08T02:17:16.847Z,5.17
2017-09-08T02:19:44.723Z,5.63
2017-09-08T02:22:13.492Z,4.70
2017-09-08T02:24:41.327Z,4.50
2017-09-08T02:27:09.184Z,5.90
2017-09-08T02:29:37.054Z,6.00
2017-09-08T02:32:04.880Z,4.80
2017-09-08T02:34:32.712Z,6.33
2017-09-08T02:37:00.646Z,5.53
2017-09-08T02:39:28.550Z,6.50
2017-09-08T02:41:56.459Z,6.40
2017-09-08T02:44:25.152Z,6.20
2017-09-08T02:46:53.773Z,8.00
2017-09-08T02:49:21.688Z,7.30
2017-09-08T02:51:50.278Z,6.90
2017-09-08T02:54:18.095Z,7.07
2017-09-08T02:56:46.008Z,6.87
2017-09-08T02:59:13.965Z,6.60
2017-09-08T03:01:41.791Z,7.47
2017-09-08T03:04:09.637Z,8.27
2017-09-08T03:06:38.281Z,6.87
2017-09-08T03:09:06.243Z,7.30
2017-09-08T03:11:34.137Z,8.43
2017-09-08T03:14:02.758Z,7.07
2017-09-08T03:16:30.583Z,6.90
2017-09-08T03:18:58.480Z,6.40
2017-09-08T03:21:26.497Z,6.47
2017-09-08T03:23:54.411Z,6.23
2017-09-08T03:26:22.260Z,6.73
2017-09-08T03:28:50.881Z,5.73
2017-09-08T03:31:18.794Z,5.43
2017-09-08T03:33:46.647Z,5.43
2017-09-08T03:36:14.479Z,5.03
2017-09-08T03:38:42.330Z,5.30
2017-09-08T03:41:10.168Z,4.97
2017-09-08T03:43:38.020Z,4.63
2017-09-08T03:46:05.873Z,4.83
2017-09-08T03:48:33.718Z,4.30
2017-09-08T03:51:01.576Z,4.43
2017-09-08T03:53:29.420Z,4.60
2017-09-08T03:55:57.265Z,4.47
2017-09-08T03:58:25.892Z,4.00
2017-09-08T04:00:53.766Z,3.80
2017-09-08T04:03:21.622Z,4.07
2017-09-08T04:05:49.488Z,4.33
2017-09-08T04:08:17.349Z,4.40
2017-09-08T04:10:45.202Z,3.43
2017-09-08T04:13:13.107Z,4.03
2017-09-08T04:15:41.020Z,4.10
2017-09-08T04:18:09.613Z,4.40
2017-09-08T04:20:38.200Z,3.90
2017-09-08T04:23:06.815Z,4.40
2017-09-08T04:25:34.688Z,3.90
2017-09-08T04:28:02.623Z,4.30
2017-09-08T04:30:30.455Z,4.13
2017-09-08T04:32:58.361Z,4.03
2017-09-08T04:35:26.220Z,3.30
2017-09-08T04:37:54.971Z,3.70
2017-09-08T04:40:22.951Z,4.40
2017-09-08T04:42:50.879Z,4.00
2017-09-08T04:45:18.863Z,4.60
2017-09-08T04:47:46.811Z,4.13
2017-09-08T04:50:14.648Z,3.57
2017-09-08T04:52:43.319Z,4.03
2017-09-08T04:55:12.006Z,3.87
2017-09-08T04:57:39.875Z,4.00
2017-09-08T05:00:08.551Z,4.30
2017-09-08T05:02:36.410Z,3.90
2017-09-08T05:05:04.324Z,3.67
2017-09-08T05:07:32.184Z,3.57
2017-09-08T05:10:00.027Z,4.13
2017-09-08T05:12:28.644Z,4.07
2017-09-08T05:14:56.596Z,3.60
2017-09-08T05:17:24.438Z,4.03
2017-09-08T05:19:53.069Z,3.20
2017-09-08T05:22:20.932Z,4.03
2017-09-08T05:24:48.880Z,3.70
2017-09-08T05:27:16.815Z,4.13
2017-09-08T05:29:44.668Z,4.00
2017-09-08T05:32:12.481Z,3.77
2017-09-08T05:34:40.363Z,4.10
2017-09-08T05:37:08.239Z,4.17
2017-09-08T05:39:36.417Z,4.20
2017-09-08T05:42:04.428Z,4.20
2017-09-08T05:44:33.094Z,3.90
2017-09-08T05:47:01.028Z,4.13
2017-09-08T05:49:29.032Z,5.00
2017-09-08T05:51:56.880Z,4.03
2017-09-08T05:54:24.741Z,4.10
2017-09-08T05:56:52.620Z,3.73
2017-09-08T05:59:20.534Z,3.53
2017-09-08T06:01:49.131Z,4.03
2017-09-08T06:04:17.003Z,4.60
2017-09-08T06:06:44.919Z,3.83
2017-09-08T06:09:12.765Z,3.63
2017-09-08T06:11:41.023Z,3.40
2017-09-08T06:14:08.949Z,4.10
2017-09-08T06:16:37.631Z,3.10
2017-09-08T06:19:06.240Z,3.45
2017-09-08T06:21:34.091Z,3.53
2017-09-08T06:24:02.903Z,3.90
2017-09-08T06:26:30.736Z,4.00
2017-09-08T06:28:59.364Z,3.83
2017-09-08T06:31:27.192Z,2.80
2017-09-08T06:33:55.793Z,3.57
2017-09-08T06:36:23.647Z,3.83
2017-09-08T06:38:52.312Z,3.57
2017-09-08T06:41:20.223Z,3.87
2017-09-08T06:43:48.079Z,5.13
2017-09-08T06:46:16.205Z,3.20
2017-09-08T06:48:44.154Z,4.00
2017-09-08T06:51:11.988Z,4.10
2017-09-08T06:53:39.860Z,3.43
2017-09-08T06:56:07.822Z,4.63
2017-09-08T06:58:35.671Z,5.00
2017-09-08T07:01:03.644Z,3.93
2017-09-08T07:03:31.534Z,4.70
2017-09-08T07:05:59.397Z,5.03
2017-09-08T07:08:27.328Z,4.80
2017-09-08T07:10:56.018Z,4.40
2017-09-08T07:13:24.661Z,4.20
2017-09-08T07:15:52.580Z,4.63
2017-09-08T07:18:21.215Z,5.40
2017-09-08T07:20:49.060Z,5.13
2017-09-08T07:23:16.957Z,5.10
2017-09-08T07:25:44.925Z,4.20
2017-09-08T07:28:12.824Z,4.20
2017-09-08T07:30:40.726Z,4.93
2017-09-08T07:33:09.375Z,5.50
2017-09-08T07:35:37.966Z,5.37
2017-09-08T07:38:07.498Z,4.37
2017-09-08T07:40:35.399Z,4.83
2017-09-08T07:43:03.251Z,4.97
2017-09-08T07:45:31.108Z,4.93
2017-09-08T07:47:59.063Z,5.13
2017-09-08T07:50:26.931Z,4.17
2017-09-08T07:52:54.821Z,4.53
2017-09-08T07:55:22.730Z,4.20
2017-09-08T07:57:51.502Z,4.90
2017-09-08T08:00:20.170Z,4.50
2017-09-08T08:02:48.004Z,5.35
2017-09-08T08:05:15.838Z,4.57
2017-09-08T08:07:44.445Z,4.57
2017-09-08T08:10:12.279Z,4.93
2017-09-08T08:12:40.890Z,5.60
2017-09-08T08:15:08.738Z,5.00
2017-09-08T08:17:37.890Z,5.53
2017-09-08T08:20:06.591Z,6.30
2017-09-08T08:22:34.430Z,5.50
2017-09-08T08:25:02.333Z,5.53
2017-09-08T08:27:30.188Z,5.27
2017-09-08T08:29:58.117Z,5.20
2017-09-08T08:32:25.977Z,5.60
2017-09-08T08:34:53.807Z,5.50
2017-09-08T08:37:21.721Z,5.00
2017-09-08T08:39:49.640Z,6.40
2017-09-08T08:42:18.320Z,5.67
2017-09-08T08:44:46.216Z,5.87
2017-09-08T08:47:16.780Z,4.80
2017-09-08T08:49:44.746Z,5.40
2017-09-08T08:52:12.620Z,5.20
2017-09-08T08:54:40.439Z,5.13
2017-09-08T08:57:09.989Z,5.80
2017-09-08T08:59:37.828Z,5.30
2017-09-08T09:02:05.820Z,6.40
2017-09-08T09:04:33.718Z,7.00
2017-09-08T09:07:01.639Z,7.00
2017-09-08T09:09:29.505Z,5.40
2017-09-08T09:11:58.099Z,5.90
2017-09-08T09:14:25.937Z,4.90
2017-09-08T09:16:53.773Z,5.30
2017-09-08T09:19:21.649Z,5.63
2017-09-08T09:21:49.458Z,4.80
2017-09-08T09:24:17.301Z,4.40
2017-09-08T09:26:45.920Z,5.37
2017-09-08T09:29:13.759Z,5.00
2017-09-08T09:31:41.582Z,4.60
2017-09-08T09:34:09.428Z,4.17
2017-09-08T09:36:37.245Z,3.83
2017-09-08T09:39:05.176Z,4.60
2017-09-08T09:41:33.039Z,4.10
2017-09-08T09:44:00.904Z,3.50
2017-09-08T09:46:28.830Z,3.43
2017-09-08T09:48:56.644Z,3.80
2017-09-08T09:51:24.530Z,4.60
2017-09-08T09:53:53.224Z,3.60
2017-09-08T09:56:21.809Z,4.07
2017-09-08T09:58:50.423Z,3.97
2017-09-08T10:01:18.222Z,4.90
2017-09-08T10:03:46.071Z,4.33
2017-09-08T10:06:13.862Z,3.70
2017-09-08T10:08:41.671Z,3.70
2017-09-08T10:11:09.572Z,4.07
2017-09-08T10:13:37.405Z,3.97
2017-09-08T10:16:05.324Z,3.20
2017-09-08T10:18:33.135Z,3.20
2017-09-08T10:21:01.046Z,3.50
2017-09-08T10:23:28.961Z,2.80
2017-09-08T10:25:56.833Z,3.50
2017-09-08T10:28:24.636Z,3.47
2017-09-08T10:30:52.483Z,3.37
2017-09-08T10:33:20.311Z,2.93
2017-09-08T10:35:48.904Z,3.47
2017-09-08T10:38:17.559Z,2.83
2017-09-08T10:40:46.207Z,4.17
2017-09-08T10:43:14.100Z,3.80
2017-09-08T10:45:41.993Z,4.03
2017-09-08T10:48:10.611Z,3.80
2017-09-08T10:50:39.501Z,3.30
2017-09-08T10:53:07.459Z,3.40
2017-09-08T10:55:35.377Z,3.33
2017-09-08T10:58:03.739Z,2.93
2017-09-08T11:00:31.837Z,3.30
2017-09-08T11:02:59.895Z,3.57
2017-09-08T11:05:27.716Z,3.33
2017-09-08T11:07:55.797Z,3.77
2017-09-08T11:10:23.976Z,2.70
2017-09-08T11:12:51.784Z,3.50
2017-09-08T11:15:19.748Z,3.50
2017-09-08T11:17:48.342Z,3.17
2017-09-08T11:20:16.256Z,3.83
2017-09-08T11:22:44.121Z,3.30
2017-09-08T11:25:12.002Z,3.43
2017-09-08T11:27:39.895Z,3.37
2017-09-08T11:30:08.055Z,3.30
2017-09-08T11:32:52.591Z,3.50
2017-09-08T11:35:26.149Z,3.40
2017-09-08T11:37:54.804Z,3.80
2017-09-08T11:40:22.625Z,3.73
2017-09-08T11:42:50.448Z,3.50
2017-09-08T11:45:18.284Z,4.13
2017-09-08T11:47:46.160Z,4.10
2017-09-08T11:50:13.990Z,4.40
2017-09-08T11:52:41.834Z,3.53
2017-09-08T11:55:10.508Z,3.73
2017-09-08T11:57:39.125Z,3.53
2017-09-08T12:00:07.085Z,3.50
2017-09-08T12:02:35.108Z,3.70
2017-09-08T12:05:03.114Z,3.53
2017-09-08T12:07:31.058Z,3.63
2017-09-08T12:09:58.867Z,3.87
2017-09-08T12:12:26.698Z,3.73
2017-09-08T12:14:55.326Z,3.70
2017-09-08T12:17:23.141Z,3.70
2017-09-08T12:19:51.022Z,4.77
2017-09-08T12:22:19.694Z,3.83
2017-09-08T12:24:47.536Z,4.90
2017-09-08T12:27:15.396Z,3.50
2017-09-08T12:29:43.204Z,4.07
2017-09-08T12:32:11.785Z,4.10
2017-09-08T12:34:40.429Z,3.47
2017-09-08T12:37:08.245Z,3.87
2017-09-08T12:39:36.958Z,3.70
2017-09-08T12:42:04.911Z,3.70
2017-09-08T12:44:32.760Z,3.60
2017-09-08T12:47:01.316Z,3.90
2017-09-08T12:49:29.189Z,3.80
2017-09-08T12:51:57.070Z,3.73
2017-09-08T12:54:25.752Z,4.40
2017-09-08T12:56:54.467Z,3.03
2017-09-08T12:59:22.443Z,3.30
2017-09-08T13:01:50.362Z,3.80
2017-09-08T13:04:18.299Z,3.70
2017-09-08T13:06:46.234Z,3.97
2017-09-08T13:09:14.082Z,4.00
2017-09-08T13:11:42.795Z,3.60
2017-09-08T13:14:23.815Z,4.00
2017-09-08T13:16:51.765Z,3.77
2017-09-08T13:19:19.706Z,3.50
2017-09-08T13:21:47.669Z,3.87
2017-09-08T13:24:15.596Z,5.50
2017-09-08T13:26:43.449Z,4.27
2017-09-08T13:29:12.661Z,3.43
2017-09-08T13:31:40.514Z,3.57
2017-09-08T13:34:08.336Z,3.70
2017-09-08T13:36:36.376Z,4.20
2017-09-08T13:39:05.108Z,3.70
2017-09-08T13:41:34.637Z,3.93
2017-09-08T13:44:02.445Z,3.67
2017-09-08T13:46:32.117Z,3.63
2017-09-08T13:48:59.985Z,4.53
2017-09-08T13:51:29.733Z,4.37
2017-09-08T13:53:58.449Z,3.60
2017-09-08T13:56:26.320Z,4.23
2017-09-08T13:58:57.496Z,3.40
2017-09-08T14:01:25.380Z,4.40
2017-09-08T14:03:55.792Z,4.20
2017-09-08T14:06:23.653Z,4.63
2017-09-08T14:08:51.562Z,4.17
2017-09-08T14:11:19.593Z,3.83
2017-09-08T14:13:47.423Z,3.70
2017-09-08T14:16:15.727Z,3.43
2017-09-08T14:18:43.625Z,2.97
2017-09-08T14:21:13.537Z,3.90
2017-09-08T14:23:41.400Z,5.33
2017-09-08T14:26:11.298Z,4.13
2017-09-08T14:31:14.588Z,4.47
2017-09-08T14:33:42.433Z,4.07
2017-09-08T14:36:10.356Z,3.90
2017-09-08T14:38:40.710Z,4.00
2017-09-08T14:41:08.637Z,4.53
2017-09-08T14:43:36.584Z,4.10
2017-09-08T14:46:05.026Z,4.87
2017-09-08T14:48:33.033Z,4.47
2017-09-08T14:51:02.141Z,4.97
2017-09-08T14:53:30.023Z,4.70
2017-09-08T14:55:58.776Z,5.40
2017-09-08T14:58:26.570Z,5.00
2017-09-08T15:00:54.737Z,5.47
2017-09-08T15:03:22.545Z,5.40
2017-09-08T15:05:51.157Z,5.20
2017-09-08T15:08:19.024Z,5.90
2017-09-08T15:10:46.866Z,5.50
2017-09-08T15:13:14.756Z,5.80
2017-09-08T15:15:42.587Z,5.73
2017-09-08T15:18:11.163Z,6.37
2017-09-08T15:20:38.997Z,6.57
2017-09-08T15:23:06.808Z,6.60
2017-09-08T15:25:34.728Z,5.80
2017-09-08T15:28:02.637Z,6.53
2017-09-08T15:30:31.284Z,5.80
2017-09-08T15:32:59.073Z,6.10
2017-09-08T15:35:27.685Z,6.90
2017-09-08T15:37:55.496Z,6.87
2017-09-08T15:40:24.173Z,6.80
2017-09-08T15:42:51.975Z,7.50
2017-09-08T15:45:23.477Z,7.20
2017-09-08T15:47:51.275Z,8.73
2017-09-08T15:50:19.116Z,6.87
2017-09-08T15:52:46.985Z,7.10
2017-09-08T15:55:14.830Z,7.67
2017-09-08T15:57:42.671Z,8.57
2017-09-08T16:00:11.255Z,8.80
2017-09-08T16:02:39.137Z,8.77
2017-09-08T16:05:07.929Z,8.20
2017-09-08T16:07:35.764Z,10.00
2017-09-08T16:10:05.277Z,9.20
2017-09-08T16:12:34.159Z,9.07
2017-09-08T16:15:02.784Z,8.77
2017-09-08T16:17:30.579Z,7.90
2017-09-08T16:19:58.376Z,8.53
2017-09-08T16:22:26.983Z,8.37
2017-09-08T16:24:55.055Z,9.10
2017-09-08T16:27:23.121Z,9.53
2017-09-08T16:29:51.052Z,8.87
2017-09-08T16:32:18.909Z,9.40
2017-09-08T16:34:46.737Z,9.33
2017-09-08T16:37:14.693Z,10.77
2017-09-08T16:39:42.843Z,8.77
2017-09-08T16:42:11.925Z,8.90
2017-09-08T16:44:40.660Z,8.63
2017-09-08T16:47:08.701Z,9.40
2017-09-08T16:49:39.599Z,9.20
2017-09-08T16:52:07.405Z,8.20
2017-09-08T16:54:37.242Z,10.50
2017-09-08T16:57:05.108Z,9.30
2017-09-08T16:59:34.465Z,10.23
2017-09-08T17:02:02.814Z,9.30
2017-09-08T17:04:32.069Z,8.70
2017-09-08T17:07:00.006Z,10.97
2017-09-08T17:09:31.350Z,9.03
2017-09-08T17:11:59.156Z,9.37
2017-09-08T17:14:27.131Z,10.57
2017-09-08T17:16:55.026Z,9.00
2017-09-08T17:19:22.951Z,10.17
2017-09-08T17:21:50.805Z,7.97
2017-09-08T17:24:19.627Z,8.77
2017-09-08T17:26:47.599Z,7.37
2017-09-08T17:29:15.467Z,8.80
2017-09-08T17:31:43.854Z,7.60
2017-09-08T17:34:11.711Z,9.20
2017-09-08T17:36:39.589Z,7.73
2017-09-08T17:39:07.492Z,7.30
2017-09-08T17:41:35.364Z,8.03
2017-09-08T17:44:05.288Z,7.87
2017-09-08T17:46:33.176Z,8.30
2017-09-08T17:49:01.092Z,8.07
2017-09-08T17:51:28.939Z,9.17
2017-09-08T17:53:56.912Z,7.50
2017-09-08T17:56:25.288Z,8.27
2017-09-08T17:58:53.793Z,8.17
2017-09-08T18:01:21.638Z,8.80
2017-09-08T18:03:49.499Z,8.73
2017-09-08T18:06:17.362Z,9.17
2017-09-08T18:08:46.865Z,9.10
2017-09-08T18:11:14.992Z,8.70
2017-09-08T18:13:43.585Z,9.67
2017-09-08T18:16:11.652Z,7.17
2017-09-08T18:18:41.854Z,7.30
2017-09-08T18:21:10.447Z,7.53
2017-09-08T18:23:39.153Z,6.80
2017-09-08T18:26:08.057Z,7.03
2017-09-08T18:28:35.962Z,7.60
2017-09-08T18:31:04.268Z,6.30
2017-09-08T18:33:33.947Z,6.47
2017-09-08T18:36:01.811Z,8.23
2017-09-08T18:38:30.702Z,9.13
2017-09-08T18:40:58.585Z,8.50
2017-09-08T18:43:26.439Z,7.80
2017-09-08T18:45:56.285Z,6.97
2017-09-08T18:48:24.968Z,8.00
2017-09-08T18:50:53.541Z,6.40
2017-09-08T18:53:22.260Z,8.43
2017-09-08T18:55:50.101Z,9.40
2017-09-08T18:58:18.667Z,11.83
2017-09-08T19:00:46.515Z,10.10
2017-09-08T19:03:14.368Z,9.50
2017-09-08T19:05:42.219Z,7.70
2017-09-08T19:08:10.179Z,8.60
2017-09-08T19:10:38.020Z,8.30
2017-09-08T19:13:06.630Z,7.70
2017-09-08T19:15:34.494Z,8.00
2017-09-08T19:18:02.413Z,7.83
2017-09-08T19:20:30.224Z,7.17
2017-09-08T19:22:58.025Z,6.83
2017-09-08T19:25:25.842Z,6.63
2017-09-08T19:27:53.654Z,6.17
2017-09-08T19:30:21.458Z,8.10
2017-09-08T19:32:50.157Z,6.83
2017-09-08T19:35:18.072Z,8.03
2017-09-08T19:37:45.924Z,7.40
2017-09-08T19:40:13.745Z,14.80
2017-09-08T19:42:41.565Z,14.60
2017-09-08T19:45:09.750Z,15.80
2017-09-08T19:47:37.555Z,13.47
2017-09-08T19:50:05.449Z,10.70
2017-09-08T19:52:33.401Z,8.90
2017-09-08T19:55:01.332Z,12.90
2017-09-08T19:57:29.285Z,10.37
2017-09-08T19:59:57.093Z,8.27
2017-09-08T20:02:24.953Z,7.30
2017-09-08T20:04:52.806Z,7.47
2017-09-08T20:07:21.512Z,8.67
2017-09-08T20:09:50.092Z,8.17
2017-09-08T20:12:17.928Z,7.87
2017-09-08T20:14:45.764Z,7.60
2017-09-08T20:17:13.601Z,7.07
2017-09-08T20:19:43.226Z,7.80
2017-09-08T20:22:11.006Z,7.37
2017-09-08T20:24:38.801Z,7.27
2017-09-08T20:27:07.336Z,7.00
2017-09-08T20:29:35.117Z,7.77
2017-09-08T20:32:02.932Z,6.50
2017-09-08T20:34:31.483Z,7.33
2017-09-08T20:36:59.286Z,8.20
2017-09-08T20:39:27.465Z,8.57
2017-09-08T20:41:55.274Z,7.13
2017-09-08T20:44:23.059Z,7.50
2017-09-08T20:46:50.936Z,8.23
2017-09-08T20:49:19.640Z,8.50
2017-09-08T20:51:47.445Z,9.47
2017-09-08T20:54:16.112Z,8.27
2017-09-08T20:56:44.037Z,7.80
2017-09-08T20:59:12.630Z,7.30
2017-09-08T21:01:41.255Z,8.70
2017-09-08T21:04:09.073Z,8.80
2017-09-08T21:06:36.966Z,8.20
2017-09-08T21:09:04.870Z,8.93
2017-09-08T21:11:32.903Z,10.07
2017-09-08T21:14:00.735Z,10.70
2017-09-08T21:16:29.356Z,8.13
2017-09-08T21:18:57.212Z,7.70
2017-09-08T21:21:26.491Z,10.77
2017-09-08T21:23:55.041Z,9.73
2017-09-08T21:26:22.868Z,11.03
2017-09-08T21:28:50.700Z,9.70
2017-09-08T21:31:18.523Z,11.27
2017-09-08T21:33:46.309Z,9.70
2017-09-08T21:36:14.145Z,12.63
2017-09-08T21:38:41.948Z,10.13
2017-09-08T21:41:10.010Z,10.07
2017-09-08T21:43:37.900Z,11.03
2017-09-08T21:46:05.733Z,9.20
2017-09-08T21:48:33.560Z,9.77
2017-09-08T21:51:01.366Z,10.63
2017-09-08T21:53:29.226Z,11.07
2017-09-08T21:55:57.107Z,10.57
2017-09-08T21:58:24.953Z,13.63
2017-09-08T22:00:52.825Z,13.50
2017-09-08T22:03:20.608Z,12.37
2017-09-08T22:05:48.410Z,12.90
2017-09-08T22:08:16.996Z,11.70
2017-09-08T22:10:45.600Z,11.57
2017-09-08T22:13:13.485Z,11.30
2017-09-08T22:15:41.365Z,12.90
2017-09-08T22:18:09.193Z,13.43
2017-09-08T22:20:37.108Z,12.03
2017-09-08T22:23:04.919Z,11.93
2017-09-08T22:25:33.657Z,12.53
2017-09-08T22:28:01.513Z,13.00
2017-09-08T22:30:29.371Z,12.80
2017-09-08T22:32:57.234Z,13.97
2017-09-08T22:35:26.149Z,13.57
2017-09-08T22:37:53.998Z,12.03
2017-09-08T22:40:21.910Z,15.60
2017-09-08T22:42:49.787Z,13.13
2017-09-08T22:45:17.677Z,12.90
2017-09-08T22:47:45.640Z,13.07
2017-09-08T22:50:13.541Z,13.00
2017-09-08T22:52:41.376Z,14.23
2017-09-08T22:55:09.184Z,12.80
2017-09-08T22:57:37.092Z,14.43
2017-09-08T23:00:04.905Z,15.77
2017-09-08T23:02:32.802Z,15.00
2017-09-08T23:05:01.410Z,16.50
2017-09-08T23:07:29.265Z,16.20
2017-09-08T23:09:57.827Z,13.63
2017-09-08T23:12:25.645Z,13.63
2017-09-08T23:14:53.542Z,15.37
2017-09-08T23:17:21.349Z,13.43
2017-09-08T23:19:49.231Z,12.57
2017-09-08T23:22:17.055Z,13.30
2017-09-08T23:24:44.854Z,13.57
2017-09-08T23:27:12.667Z,12.00
2017-09-08T23:29:40.504Z,13.33
2017-09-08T23:32:08.347Z,11.43
2017-09-08T23:34:36.156Z,11.93
2017-09-08T23:37:04.027Z,11.63
2017-09-08T23:39:31.824Z,11.63
2017-09-08T23:41:59.619Z,11.33
2017-09-08T23:44:27.387Z,11.13
2017-09-08T23:46:55.207Z,13.10
2017-09-08T23:49:23.085Z,10.63
2017-09-08T23:51:51.896Z,11.77
2017-09-08T23:54:19.719Z,12.27
2017-09-08T23:56:47.621Z,11.87
2017-09-08T23:59:15.559Z,11.30
